sensor_id;sensor_type;location;lat;lon;timestamp;pressure;altitude;pressure_sealevel;temperature;humidity
8160;BME280;27404;52.398;9.646;2022-11-24T00:00:20;99692.06;;;4.72;100.00
8160;BME280;27404;52.398;9.646;2022-11-24T00:02:45;99686.41;;;4.74;100.00
8160;BME280;27404;52.398;9.646;2022-11-24T00:05:11;99690.41;;;4.71;100.00
8160;BME280;27404;52.398;9.646;2022-11-24T00:07:36;99691.06;;;4.67;100.00
8160;BME280;27404;52.398;9.646;2022-11-24T00:10:02;99695.47;;;4.61;100.00
8160;BME280;27404;52.398;9.646;2022-11-24T00:12:28;99691.97;;;4.61;100.00
8160;BME280;27404;52.398;9.646;2022-11-24T00:14:53;99698.81;;;4.63;100.00
8160;BME280;27404;52.398;9.646;2022-11-24T00:17:19;99703.22;;;4.57;100.00
8160;BME280;27404;52.398;9.646;2022-11-24T00:19:44;99701.59;;;4.50;100.00
8160;BME280;27404;52.398;9.646;2022-11-24T00:22:09;99695.91;;;4.58;100.00
8160;BME280;27404;52.398;9.646;2022-11-24T00:24:35;99697.22;;;4.49;100.00
8160;BME280;27404;52.398;9.646;2022-11-24T00:27:00;99693.03;;;4.53;100.00
8160;BME280;27404;52.398;9.646;2022-11-24T00:29:26;99702.91;;;4.40;100.00
8160;BME280;27404;52.398;9.646;2022-11-24T00:31:51;99706.53;;;4.27;100.00
8160;BME280;27404;52.398;9.646;2022-11-24T00:34:17;99713.59;;;4.28;100.00
8160;BME280;27404;52.398;9.646;2022-11-24T00:36:42;99717.59;;;4.19;100.00
8160;BME280;27404;52.398;9.646;2022-11-24T00:39:12;99709.47;;;4.19;100.00
8160;BME280;27404;52.398;9.646;2022-11-24T00:41:38;99719.31;;;4.13;100.00
8160;BME280;27404;52.398;9.646;2022-11-24T00:44:04;99717.66;;;4.06;100.00
8160;BME280;27404;52.398;9.646;2022-11-24T00:46:30;99720.78;;;4.09;100.00
8160;BME280;27404;52.398;9.646;2022-11-24T00:48:55;99726.19;;;4.09;100.00
8160;BME280;27404;52.398;9.646;2022-11-24T00:51:23;99718.88;;;4.17;100.00
8160;BME280;27404;52.398;9.646;2022-11-24T00:53:50;99731.94;;;4.26;100.00
8160;BME280;27404;52.398;9.646;2022-11-24T00:56:17;99734.19;;;4.29;100.00
8160;BME280;27404;52.398;9.646;2022-11-24T00:58:42;99730.50;;;4.24;100.00
8160;BME280;27404;52.398;9.646;2022-11-24T01:01:16;99732.59;;;4.22;100.00
8160;BME280;27404;52.398;9.646;2022-11-24T01:03:43;99727.78;;;4.24;100.00
8160;BME280;27404;52.398;9.646;2022-11-24T01:06:12;99727.06;;;4.42;100.00
8160;BME280;27404;52.398;9.646;2022-11-24T01:08:39;99728.28;;;4.46;100.00
8160;BME280;27404;52.398;9.646;2022-11-24T01:11:19;99728.66;;;4.50;100.00
8160;BME280;27404;52.398;9.646;2022-11-24T01:13:48;99732.59;;;4.54;100.00
8160;BME280;27404;52.398;9.646;2022-11-24T01:16:15;99728.47;;;4.51;100.00
8160;BME280;27404;52.398;9.646;2022-11-24T01:18:40;99732.03;;;4.45;100.00
8160;BME280;27404;52.398;9.646;2022-11-24T01:21:06;99737.66;;;4.43;100.00
8160;BME280;27404;52.398;9.646;2022-11-24T01:23:31;99736.34;;;4.53;100.00
8160;BME280;27404;52.398;9.646;2022-11-24T01:25:57;99742.63;;;4.47;100.00
8160;BME280;27404;52.398;9.646;2022-11-24T01:28:22;99745.59;;;4.38;100.00
8160;BME280;27404;52.398;9.646;2022-11-24T01:31:02;99741.69;;;4.27;100.00
8160;BME280;27404;52.398;9.646;2022-11-24T01:33:27;99754.84;;;4.17;100.00
8160;BME280;27404;52.398;9.646;2022-11-24T01:35:53;99743.66;;;4.07;100.00
8160;BME280;27404;52.398;9.646;2022-11-24T01:38:19;99740.38;;;3.98;100.00
8160;BME280;27404;52.398;9.646;2022-11-24T01:40:45;99744.78;;;3.92;100.00
8160;BME280;27404;52.398;9.646;2022-11-24T01:43:19;99751.44;;;3.90;100.00
8160;BME280;27404;52.398;9.646;2022-11-24T01:45:45;99754.19;;;3.76;100.00
8160;BME280;27404;52.398;9.646;2022-11-24T01:48:21;99753.56;;;3.74;100.00
8160;BME280;27404;52.398;9.646;2022-11-24T01:50:53;99756.06;;;3.76;100.00
8160;BME280;27404;52.398;9.646;2022-11-24T01:53:22;99770.41;;;3.76;100.00
8160;BME280;27404;52.398;9.646;2022-11-24T01:55:49;99769.75;;;3.88;100.00
8160;BME280;27404;52.398;9.646;2022-11-24T01:58:22;99763.91;;;3.91;100.00
8160;BME280;27404;52.398;9.646;2022-11-24T02:00:49;99772.03;;;3.91;100.00
8160;BME280;27404;52.398;9.646;2022-11-24T02:03:18;99765.09;;;4.02;100.00
8160;BME280;27404;52.398;9.646;2022-11-24T02:08:24;99764.25;;;4.14;100.00
8160;BME280;27404;52.398;9.646;2022-11-24T02:10:52;99763.44;;;4.07;100.00
8160;BME280;27404;52.398;9.646;2022-11-24T02:13:20;99764.63;;;4.18;100.00
8160;BME280;27404;52.398;9.646;2022-11-24T02:15:46;99762.53;;;4.20;100.00
8160;BME280;27404;52.398;9.646;2022-11-24T02:18:11;99765.28;;;4.13;100.00
8160;BME280;27404;52.398;9.646;2022-11-24T02:20:37;99774.03;;;4.15;100.00
8160;BME280;27404;52.398;9.646;2022-11-24T02:23:21;99773.84;;;4.10;100.00
8160;BME280;27404;52.398;9.646;2022-11-24T02:26:15;99766.75;;;4.09;100.00
8160;BME280;27404;52.398;9.646;2022-11-24T02:28:44;99775.69;;;4.17;100.00
8160;BME280;27404;52.398;9.646;2022-11-24T02:31:10;99779.44;;;4.15;100.00
8160;BME280;27404;52.398;9.646;2022-11-24T02:33:37;99780.44;;;4.21;100.00
8160;BME280;27404;52.398;9.646;2022-11-24T02:36:02;99784.59;;;4.24;100.00
8160;BME280;27404;52.398;9.646;2022-11-24T02:38:33;99788.16;;;4.18;100.00
8160;BME280;27404;52.398;9.646;2022-11-24T02:41:06;99791.06;;;4.16;100.00
8160;BME280;27404;52.398;9.646;2022-11-24T02:43:39;99787.75;;;4.21;100.00
8160;BME280;27404;52.398;9.646;2022-11-24T02:46:05;99790.59;;;4.33;100.00
8160;BME280;27404;52.398;9.646;2022-11-24T02:48:31;99791.88;;;4.30;100.00
8160;BME280;27404;52.398;9.646;2022-11-24T02:50:56;99788.09;;;4.31;100.00
8160;BME280;27404;52.398;9.646;2022-11-24T02:53:22;99794.34;;;4.32;100.00
8160;BME280;27404;52.398;9.646;2022-11-24T02:55:47;99803.06;;;4.34;100.00
8160;BME280;27404;52.398;9.646;2022-11-24T02:58:12;99796.81;;;4.40;100.00
8160;BME280;27404;52.398;9.646;2022-11-24T03:00:39;99798.84;;;4.44;100.00
8160;BME280;27404;52.398;9.646;2022-11-24T03:03:04;99803.19;;;4.52;100.00
8160;BME280;27404;52.398;9.646;2022-11-24T03:05:30;99796.75;;;4.47;100.00
8160;BME280;27404;52.398;9.646;2022-11-24T03:07:55;99801.34;;;4.46;100.00
8160;BME280;27404;52.398;9.646;2022-11-24T03:10:21;99803.38;;;4.57;100.00
8160;BME280;27404;52.398;9.646;2022-11-24T03:12:46;99806.72;;;4.53;100.00
8160;BME280;27404;52.398;9.646;2022-11-24T03:15:12;99809.19;;;4.61;100.00
8160;BME280;27404;52.398;9.646;2022-11-24T03:17:37;99814.22;;;4.57;100.00
8160;BME280;27404;52.398;9.646;2022-11-24T03:20:03;99808.78;;;4.57;100.00
8160;BME280;27404;52.398;9.646;2022-11-24T03:22:28;99815.69;;;4.53;100.00
8160;BME280;27404;52.398;9.646;2022-11-24T03:24:54;99826.50;;;4.53;100.00
8160;BME280;27404;52.398;9.646;2022-11-24T03:27:19;99823.38;;;4.56;100.00
8160;BME280;27404;52.398;9.646;2022-11-24T03:29:45;99819.19;;;4.61;100.00
8160;BME280;27404;52.398;9.646;2022-11-24T03:32:10;99831.50;;;4.56;100.00
8160;BME280;27404;52.398;9.646;2022-11-24T03:34:36;99827.56;;;4.52;100.00
8160;BME280;27404;52.398;9.646;2022-11-24T03:37:01;99828.38;;;4.53;100.00
8160;BME280;27404;52.398;9.646;2022-11-24T03:39:27;99835.00;;;4.57;100.00
8160;BME280;27404;52.398;9.646;2022-11-24T03:41:52;99830.22;;;4.59;100.00
8160;BME280;27404;52.398;9.646;2022-11-24T03:44:18;99835.81;;;4.64;100.00
8160;BME280;27404;52.398;9.646;2022-11-24T03:46:43;99831.41;;;4.70;100.00
8160;BME280;27404;52.398;9.646;2022-11-24T03:49:09;99833.47;;;4.74;100.00
8160;BME280;27404;52.398;9.646;2022-11-24T03:51:34;99839.69;;;4.75;100.00
8160;BME280;27404;52.398;9.646;2022-11-24T03:54:00;99837.41;;;4.79;100.00
8160;BME280;27404;52.398;9.646;2022-11-24T03:56:26;99849.84;;;4.86;100.00
8160;BME280;27404;52.398;9.646;2022-11-24T03:58:52;99851.94;;;4.91;100.00
8160;BME280;27404;52.398;9.646;2022-11-24T04:01:17;99852.09;;;4.96;100.00
8160;BME280;27404;52.398;9.646;2022-11-24T04:03:43;99855.81;;;5.02;100.00
8160;BME280;27404;52.398;9.646;2022-11-24T04:06:08;99859.94;;;5.04;100.00
8160;BME280;27404;52.398;9.646;2022-11-24T04:08:34;99857.84;;;5.07;100.00
8160;BME280;27404;52.398;9.646;2022-11-24T04:10:59;99852.22;;;5.08;100.00
8160;BME280;27404;52.398;9.646;2022-11-24T04:13:25;99855.53;;;5.10;100.00
8160;BME280;27404;52.398;9.646;2022-11-24T04:15:51;99856.34;;;5.11;100.00
8160;BME280;27404;52.398;9.646;2022-11-24T04:18:17;99860.56;;;5.07;100.00
8160;BME280;27404;52.398;9.646;2022-11-24T04:20:42;99864.31;;;5.06;100.00
8160;BME280;27404;52.398;9.646;2022-11-24T04:23:08;99862.28;;;5.01;100.00
8160;BME280;27404;52.398;9.646;2022-11-24T04:25:34;99861.28;;;4.95;100.00
8160;BME280;27404;52.398;9.646;2022-11-24T04:28:00;99866.09;;;4.86;100.00
8160;BME280;27404;52.398;9.646;2022-11-24T04:30:26;99867.19;;;4.79;100.00
8160;BME280;27404;52.398;9.646;2022-11-24T04:32:52;99864.94;;;4.69;100.00
8160;BME280;27404;52.398;9.646;2022-11-24T04:35:18;99864.38;;;4.60;100.00
8160;BME280;27404;52.398;9.646;2022-11-24T04:37:44;99877.28;;;4.58;100.00
8160;BME280;27404;52.398;9.646;2022-11-24T04:40:11;99871.88;;;4.58;100.00
8160;BME280;27404;52.398;9.646;2022-11-24T04:42:39;99875.41;;;4.58;100.00
8160;BME280;27404;52.398;9.646;2022-11-24T04:45:05;99878.31;;;4.57;100.00
8160;BME280;27404;52.398;9.646;2022-11-24T04:47:31;99883.31;;;4.60;100.00
8160;BME280;27404;52.398;9.646;2022-11-24T04:49:57;99896.22;;;4.58;100.00
8160;BME280;27404;52.398;9.646;2022-11-24T04:52:24;99900.41;;;4.54;100.00
8160;BME280;27404;52.398;9.646;2022-11-24T04:54:50;99890.84;;;4.51;100.00
8160;BME280;27404;52.398;9.646;2022-11-24T04:57:17;99895.03;;;4.40;100.00
8160;BME280;27404;52.398;9.646;2022-11-24T04:59:43;99897.56;;;4.28;100.00
8160;BME280;27404;52.398;9.646;2022-11-24T05:02:09;99905.91;;;4.20;100.00
8160;BME280;27404;52.398;9.646;2022-11-24T05:04:34;99910.13;;;4.09;100.00
8160;BME280;27404;52.398;9.646;2022-11-24T05:07:00;99905.75;;;4.02;100.00
8160;BME280;27404;52.398;9.646;2022-11-24T05:09:26;99901.19;;;3.95;100.00
8160;BME280;27404;52.398;9.646;2022-11-24T05:11:51;99911.38;;;3.87;100.00
8160;BME280;27404;52.398;9.646;2022-11-24T05:14:16;99908.88;;;3.78;100.00
8160;BME280;27404;52.398;9.646;2022-11-24T05:16:42;99921.38;;;3.73;100.00
8160;BME280;27404;52.398;9.646;2022-11-24T05:19:07;99917.84;;;3.65;100.00
8160;BME280;27404;52.398;9.646;2022-11-24T05:21:33;99916.81;;;3.60;100.00
8160;BME280;27404;52.398;9.646;2022-11-24T05:23:58;99921.16;;;3.54;100.00
8160;BME280;27404;52.398;9.646;2022-11-24T05:26:25;99917.63;;;3.47;100.00
8160;BME280;27404;52.398;9.646;2022-11-24T05:28:51;99922.00;;;3.41;100.00
8160;BME280;27404;52.398;9.646;2022-11-24T05:31:16;99912.63;;;3.37;100.00
8160;BME280;27404;52.398;9.646;2022-11-24T05:33:41;99932.59;;;3.29;100.00
8160;BME280;27404;52.398;9.646;2022-11-24T05:36:08;99924.25;;;3.24;100.00
8160;BME280;27404;52.398;9.646;2022-11-24T05:38:53;99930.47;;;3.18;100.00
8160;BME280;27404;52.398;9.646;2022-11-24T05:41:19;99935.84;;;3.11;100.00
8160;BME280;27404;52.398;9.646;2022-11-24T05:43:44;99939.41;;;3.11;100.00
8160;BME280;27404;52.398;9.646;2022-11-24T05:46:10;99936.06;;;3.09;100.00
8160;BME280;27404;52.398;9.646;2022-11-24T05:48:35;99943.13;;;3.10;100.00
8160;BME280;27404;52.398;9.646;2022-11-24T05:51:00;99940.22;;;3.12;100.00
8160;BME280;27404;52.398;9.646;2022-11-24T05:53:26;99946.88;;;3.16;100.00
8160;BME280;27404;52.398;9.646;2022-11-24T05:55:52;99946.28;;;3.21;100.00
8160;BME280;27404;52.398;9.646;2022-11-24T05:58:17;99952.53;;;3.28;100.00
8160;BME280;27404;52.398;9.646;2022-11-24T06:00:43;99955.84;;;3.37;100.00
8160;BME280;27404;52.398;9.646;2022-11-24T06:03:09;99953.78;;;3.39;100.00
8160;BME280;27404;52.398;9.646;2022-11-24T06:05:35;99954.22;;;3.56;100.00
8160;BME280;27404;52.398;9.646;2022-11-24T06:08:01;99965.25;;;3.54;100.00
8160;BME280;27404;52.398;9.646;2022-11-24T06:10:27;99961.50;;;3.62;100.00
8160;BME280;27404;52.398;9.646;2022-11-24T06:12:52;99957.13;;;3.48;100.00
8160;BME280;27404;52.398;9.646;2022-11-24T06:15:18;99962.06;;;3.37;100.00
8160;BME280;27404;52.398;9.646;2022-11-24T06:17:44;99963.94;;;3.23;100.00
8160;BME280;27404;52.398;9.646;2022-11-24T06:20:16;99967.03;;;3.14;100.00
8160;BME280;27404;52.398;9.646;2022-11-24T06:22:41;99973.25;;;3.14;100.00
8160;BME280;27404;52.398;9.646;2022-11-24T06:25:07;99977.84;;;3.14;100.00
8160;BME280;27404;52.398;9.646;2022-11-24T06:27:33;99980.75;;;3.19;100.00
8160;BME280;27404;52.398;9.646;2022-11-24T06:29:59;99989.44;;;3.07;100.00
8160;BME280;27404;52.398;9.646;2022-11-24T06:32:25;99983.50;;;3.39;100.00
8160;BME280;27404;52.398;9.646;2022-11-24T06:34:50;99989.34;;;3.49;100.00
8160;BME280;27404;52.398;9.646;2022-11-24T06:37:16;100000.38;;;3.61;100.00
8160;BME280;27404;52.398;9.646;2022-11-24T06:39:41;99989.56;;;3.54;100.00
8160;BME280;27404;52.398;9.646;2022-11-24T06:42:06;99990.81;;;3.59;100.00
8160;BME280;27404;52.398;9.646;2022-11-24T06:44:32;99992.50;;;3.60;100.00
8160;BME280;27404;52.398;9.646;2022-11-24T06:46:57;99994.75;;;3.49;100.00
8160;BME280;27404;52.398;9.646;2022-11-24T06:49:23;99994.56;;;3.58;100.00
8160;BME280;27404;52.398;9.646;2022-11-24T06:51:48;99992.09;;;3.63;100.00
8160;BME280;27404;52.398;9.646;2022-11-24T06:54:15;99996.00;;;3.67;100.00
8160;BME280;27404;52.398;9.646;2022-11-24T06:56:41;99996.84;;;3.74;100.00
8160;BME280;27404;52.398;9.646;2022-11-24T06:59:06;100003.94;;;3.68;100.00
8160;BME280;27404;52.398;9.646;2022-11-24T07:01:31;99993.13;;;3.82;100.00
8160;BME280;27404;52.398;9.646;2022-11-24T07:03:57;100009.75;;;3.72;100.00
8160;BME280;27404;52.398;9.646;2022-11-24T07:06:24;100007.88;;;3.79;100.00
8160;BME280;27404;52.398;9.646;2022-11-24T07:08:51;100016.84;;;3.87;100.00
8160;BME280;27404;52.398;9.646;2022-11-24T07:11:19;100024.31;;;3.84;100.00
8160;BME280;27404;52.398;9.646;2022-11-24T07:13:45;100019.56;;;4.00;100.00
8160;BME280;27404;52.398;9.646;2022-11-24T07:16:18;100022.88;;;4.15;100.00
8160;BME280;27404;52.398;9.646;2022-11-24T07:18:44;100028.28;;;4.15;100.00
8160;BME280;27404;52.398;9.646;2022-11-24T07:21:10;100027.47;;;4.22;100.00
8160;BME280;27404;52.398;9.646;2022-11-24T07:23:36;100035.78;;;4.20;100.00
8160;BME280;27404;52.398;9.646;2022-11-24T07:26:03;100047.22;;;4.22;100.00
8160;BME280;27404;52.398;9.646;2022-11-24T07:28:29;100040.34;;;4.33;100.00
8160;BME280;27404;52.398;9.646;2022-11-24T07:30:55;100049.50;;;4.39;100.00
8160;BME280;27404;52.398;9.646;2022-11-24T07:33:20;100056.16;;;4.36;100.00
8160;BME280;27404;52.398;9.646;2022-11-24T07:35:50;100055.94;;;4.44;100.00
8160;BME280;27404;52.398;9.646;2022-11-24T07:38:16;100059.50;;;4.38;100.00
8160;BME280;27404;52.398;9.646;2022-11-24T07:40:41;100066.78;;;4.38;100.00
8160;BME280;27404;52.398;9.646;2022-11-24T07:43:07;100070.53;;;4.50;100.00
8160;BME280;27404;52.398;9.646;2022-11-24T07:45:32;100076.56;;;4.59;100.00
8160;BME280;27404;52.398;9.646;2022-11-24T07:47:58;100074.47;;;4.61;100.00
8160;BME280;27404;52.398;9.646;2022-11-24T07:50:23;100078.41;;;4.65;100.00
8160;BME280;27404;52.398;9.646;2022-11-24T07:52:49;100077.16;;;4.74;100.00
8160;BME280;27404;52.398;9.646;2022-11-24T07:55:14;100074.66;;;4.80;100.00
8160;BME280;27404;52.398;9.646;2022-11-24T07:57:40;100079.22;;;4.79;100.00
8160;BME280;27404;52.398;9.646;2022-11-24T08:00:06;100079.22;;;4.79;100.00
8160;BME280;27404;52.398;9.646;2022-11-24T08:02:32;100086.09;;;4.75;100.00
8160;BME280;27404;52.398;9.646;2022-11-24T08:04:57;100090.91;;;4.73;100.00
8160;BME280;27404;52.398;9.646;2022-11-24T08:07:23;100095.91;;;4.69;100.00
8160;BME280;27404;52.398;9.646;2022-11-24T08:09:49;100089.03;;;4.60;100.00
8160;BME280;27404;52.398;9.646;2022-11-24T08:12:18;100087.41;;;4.52;100.00
8160;BME280;27404;52.398;9.646;2022-11-24T08:14:50;100089.66;;;4.49;100.00
8160;BME280;27404;52.398;9.646;2022-11-24T08:17:18;100096.34;;;4.53;100.00
8160;BME280;27404;52.398;9.646;2022-11-24T08:19:44;100095.53;;;4.52;100.00
8160;BME280;27404;52.398;9.646;2022-11-24T08:22:09;100104.03;;;4.56;100.00
8160;BME280;27404;52.398;9.646;2022-11-24T08:24:35;100108.81;;;4.67;100.00
8160;BME280;27404;52.398;9.646;2022-11-24T08:27:01;100112.97;;;4.70;100.00
8160;BME280;27404;52.398;9.646;2022-11-24T08:29:27;100106.31;;;4.79;100.00
8160;BME280;27404;52.398;9.646;2022-11-24T08:31:53;100107.31;;;4.98;100.00
8160;BME280;27404;52.398;9.646;2022-11-24T08:34:22;100107.28;;;5.18;100.00
8160;BME280;27404;52.398;9.646;2022-11-24T08:36:49;100113.84;;;5.43;100.00
8160;BME280;27404;52.398;9.646;2022-11-24T08:39:15;100115.25;;;5.59;100.00
8160;BME280;27404;52.398;9.646;2022-11-24T08:41:40;100112.84;;;5.76;100.00
8160;BME280;27404;52.398;9.646;2022-11-24T08:44:06;100117.97;;;5.98;100.00
8160;BME280;27404;52.398;9.646;2022-11-24T08:46:32;100121.88;;;6.08;100.00
8160;BME280;27404;52.398;9.646;2022-11-24T08:48:58;100129.81;;;6.10;100.00
8160;BME280;27404;52.398;9.646;2022-11-24T08:51:25;100134.38;;;6.16;100.00
8160;BME280;27404;52.398;9.646;2022-11-24T08:53:58;100140.28;;;6.32;100.00
8160;BME280;27404;52.398;9.646;2022-11-24T08:56:26;100141.25;;;6.44;100.00
8160;BME280;27404;52.398;9.646;2022-11-24T08:58:52;100153.31;;;6.55;100.00
8160;BME280;27404;52.398;9.646;2022-11-24T09:01:18;100154.47;;;6.66;100.00
8160;BME280;27404;52.398;9.646;2022-11-24T09:03:46;100165.44;;;6.78;100.00
8160;BME280;27404;52.398;9.646;2022-11-24T09:06:12;100159.38;;;6.76;100.00
8160;BME280;27404;52.398;9.646;2022-11-24T09:08:38;100169.00;;;6.78;100.00
8160;BME280;27404;52.398;9.646;2022-11-24T09:11:07;100173.53;;;6.85;100.00
8160;BME280;27404;52.398;9.646;2022-11-24T09:13:32;100163.13;;;6.81;100.00
8160;BME280;27404;52.398;9.646;2022-11-24T09:16:06;100168.09;;;6.85;100.00
8160;BME280;27404;52.398;9.646;2022-11-24T09:18:33;100163.94;;;6.82;100.00
8160;BME280;27404;52.398;9.646;2022-11-24T09:23:32;100169.31;;;6.63;100.00
8160;BME280;27404;52.398;9.646;2022-11-24T09:26:15;100184.28;;;6.73;100.00
8160;BME280;27404;52.398;9.646;2022-11-24T09:28:41;100174.75;;;6.89;100.00
8160;BME280;27404;52.398;9.646;2022-11-24T09:31:10;100179.31;;;6.95;100.00
8160;BME280;27404;52.398;9.646;2022-11-24T09:33:36;100187.91;;;7.10;100.00
8160;BME280;27404;52.398;9.646;2022-11-24T09:36:03;100181.09;;;7.26;100.00
8160;BME280;27404;52.398;9.646;2022-11-24T09:38:28;100179.34;;;7.32;100.00
8160;BME280;27404;52.398;9.646;2022-11-24T09:40:54;100182.50;;;7.29;100.00
8160;BME280;27404;52.398;9.646;2022-11-24T09:45:58;100186.59;;;7.38;100.00
8160;BME280;27404;52.398;9.646;2022-11-24T09:48:31;100186.44;;;7.33;100.00
8160;BME280;27404;52.398;9.646;2022-11-24T09:51:01;100192.88;;;7.20;100.00
8160;BME280;27404;52.398;9.646;2022-11-24T09:55:58;100199.84;;;7.09;100.00
8160;BME280;27404;52.398;9.646;2022-11-24T10:00:58;100192.34;;;7.30;100.00
8160;BME280;27404;52.398;9.646;2022-11-24T10:05:52;100190.44;;;7.49;100.00
8160;BME280;27404;52.398;9.646;2022-11-24T10:08:26;100196.56;;;7.63;100.00
8160;BME280;27404;52.398;9.646;2022-11-24T10:10:58;100201.25;;;7.75;100.00
8160;BME280;27404;52.398;9.646;2022-11-24T10:13:40;100201.78;;;7.83;100.00
8160;BME280;27404;52.398;9.646;2022-11-24T10:21:57;100215.00;;;8.29;100.00
8160;BME280;27404;52.398;9.646;2022-11-24T10:28:03;100215.75;;;8.79;100.00
8160;BME280;27404;52.398;9.646;2022-11-24T10:30:12;100218.88;;;8.82;100.00
8160;BME280;27404;52.398;9.646;2022-11-24T10:33:22;100219.09;;;8.81;100.00
8160;BME280;27404;52.398;9.646;2022-11-24T10:35:39;100226.13;;;8.88;100.00
8160;BME280;27404;52.398;9.646;2022-11-24T10:40:58;100228.72;;;8.95;100.00
8160;BME280;27404;52.398;9.646;2022-11-24T10:43:27;100233.31;;;8.95;100.00
8160;BME280;27404;52.398;9.646;2022-11-24T10:46:14;100227.19;;;8.87;100.00
8160;BME280;27404;52.398;9.646;2022-11-24T10:48:50;100228.66;;;8.71;100.00
8160;BME280;27404;52.398;9.646;2022-11-24T10:54:00;100224.38;;;8.33;100.00
8160;BME280;27404;52.398;9.646;2022-11-24T10:56:43;100224.97;;;8.35;100.00
8160;BME280;27404;52.398;9.646;2022-11-24T11:01:53;100227.13;;;8.76;100.00
8160;BME280;27404;52.398;9.646;2022-11-24T11:04:31;100218.06;;;8.94;100.00
8160;BME280;27404;52.398;9.646;2022-11-24T11:07:20;100231.22;;;9.09;100.00
8160;BME280;27404;52.398;9.646;2022-11-24T11:09:47;100229.09;;;9.23;100.00
8160;BME280;27404;52.398;9.646;2022-11-24T11:12:28;100235.88;;;9.20;100.00
8160;BME280;27404;52.398;9.646;2022-11-24T11:14:57;100231.56;;;9.12;100.00
8160;BME280;27404;52.398;9.646;2022-11-24T11:17:43;100232.53;;;9.18;100.00
8160;BME280;27404;52.398;9.646;2022-11-24T11:20:15;100231.22;;;9.32;100.00
8160;BME280;27404;52.398;9.646;2022-11-24T11:22:42;100237.03;;;9.48;100.00
8160;BME280;27404;52.398;9.646;2022-11-24T11:27:35;100244.63;;;9.58;100.00
8160;BME280;27404;52.398;9.646;2022-11-24T11:30:23;100250.06;;;9.70;100.00
8160;BME280;27404;52.398;9.646;2022-11-24T11:32:59;100246.59;;;9.74;100.00
8160;BME280;27404;52.398;9.646;2022-11-24T11:35:31;100256.81;;;9.67;100.00
8160;BME280;27404;52.398;9.646;2022-11-24T11:38:00;100256.63;;;9.57;100.00
8160;BME280;27404;52.398;9.646;2022-11-24T11:40:29;100257.19;;;9.47;100.00
8160;BME280;27404;52.398;9.646;2022-11-24T11:43:12;100255.19;;;9.42;100.00
8160;BME280;27404;52.398;9.646;2022-11-24T11:45:45;100253.53;;;9.41;100.00
8160;BME280;27404;52.398;9.646;2022-11-24T11:48:23;100264.31;;;9.24;100.00
8160;BME280;27404;52.398;9.646;2022-11-24T11:50:54;100266.19;;;9.36;100.00
8160;BME280;27404;52.398;9.646;2022-11-24T12:05:01;100274.16;;;9.61;100.00
8160;BME280;27404;52.398;9.646;2022-11-24T12:15:50;100295.25;;;9.18;100.00
8160;BME280;27404;52.398;9.646;2022-11-24T12:26:51;100296.47;;;8.49;100.00
8160;BME280;27404;52.398;9.646;2022-11-24T12:40:10;100306.09;;;8.82;100.00
8160;BME280;27404;52.398;9.646;2022-11-24T12:50:57;100309.09;;;8.93;100.00
8160;BME280;27404;52.398;9.646;2022-11-24T12:53:31;100319.03;;;8.99;100.00
8160;BME280;27404;52.398;9.646;2022-11-24T12:56:04;100317.50;;;9.03;100.00
8160;BME280;27404;52.398;9.646;2022-11-24T13:06:50;100328.63;;;8.89;100.00
8160;BME280;27404;52.398;9.646;2022-11-24T13:09:17;100327.56;;;8.91;100.00
8160;BME280;27404;52.398;9.646;2022-11-24T13:11:45;100334.53;;;8.86;100.00
8160;BME280;27404;52.398;9.646;2022-11-24T13:14:29;100334.53;;;8.86;100.00
8160;BME280;27404;52.398;9.646;2022-11-24T13:16:59;100345.00;;;8.89;100.00
8160;BME280;27404;52.398;9.646;2022-11-24T13:19:29;100340.31;;;8.78;100.00
8160;BME280;27404;52.398;9.646;2022-11-24T13:22:12;100350.84;;;8.74;100.00
8160;BME280;27404;52.398;9.646;2022-11-24T13:24:39;100344.03;;;8.65;100.00
8160;BME280;27404;52.398;9.646;2022-11-24T13:29:50;100348.53;;;8.59;100.00
8160;BME280;27404;52.398;9.646;2022-11-24T13:53:33;100377.34;;;8.30;100.00
8160;BME280;27404;52.398;9.646;2022-11-24T13:58:40;100389.59;;;8.21;100.00
8160;BME280;27404;52.398;9.646;2022-11-24T14:06:29;100396.56;;;8.17;100.00
8160;BME280;27404;52.398;9.646;2022-11-24T14:09:00;100409.06;;;8.24;100.00
8160;BME280;27404;52.398;9.646;2022-11-24T14:11:28;100405.16;;;8.13;100.00
8160;BME280;27404;52.398;9.646;2022-11-24T14:13:54;100403.34;;;8.07;100.00
8160;BME280;27404;52.398;9.646;2022-11-24T14:16:21;100409.47;;;8.03;100.00
8160;BME280;27404;52.398;9.646;2022-11-24T14:18:49;100416.59;;;8.04;100.00
8160;BME280;27404;52.398;9.646;2022-11-24T14:21:22;100410.25;;;8.10;100.00
8160;BME280;27404;52.398;9.646;2022-11-24T14:23:54;100417.19;;;8.06;100.00
8160;BME280;27404;52.398;9.646;2022-11-24T14:26:40;100414.31;;;8.00;100.00
8160;BME280;27404;52.398;9.646;2022-11-24T14:29:23;100408.19;;;8.05;100.00
8160;BME280;27404;52.398;9.646;2022-11-24T14:31:57;100408.25;;;7.98;100.00
8160;BME280;27404;52.398;9.646;2022-11-24T14:34:25;100419.44;;;7.90;100.00
8160;BME280;27404;52.398;9.646;2022-11-24T14:36:51;100416.53;;;7.85;100.00
8160;BME280;27404;52.398;9.646;2022-11-24T14:39:22;100421.66;;;7.75;100.00
8160;BME280;27404;52.398;9.646;2022-11-24T14:41:56;100420.66;;;7.69;100.00
8160;BME280;27404;52.398;9.646;2022-11-24T14:44:27;100415.44;;;7.67;100.00
8160;BME280;27404;52.398;9.646;2022-11-24T14:47:15;100428.41;;;7.65;100.00
8160;BME280;27404;52.398;9.646;2022-11-24T14:49:43;100434.78;;;7.59;100.00
8160;BME280;27404;52.398;9.646;2022-11-24T14:52:12;100426.44;;;7.54;100.00
8160;BME280;27404;52.398;9.646;2022-11-24T14:54:57;100429.59;;;7.51;100.00
8160;BME280;27404;52.398;9.646;2022-11-24T14:57:33;100440.13;;;7.40;100.00
8160;BME280;27404;52.398;9.646;2022-11-24T15:00:14;100450.25;;;7.26;100.00
8160;BME280;27404;52.398;9.646;2022-11-24T15:02:49;100457.63;;;7.13;100.00
8160;BME280;27404;52.398;9.646;2022-11-24T15:06:02;100464.16;;;7.05;100.00
8160;BME280;27404;52.398;9.646;2022-11-24T15:08:03;100462.88;;;7.07;100.00
8160;BME280;27404;52.398;9.646;2022-11-24T15:10:33;100465.16;;;7.10;100.00
8160;BME280;27404;52.398;9.646;2022-11-24T15:13:01;100458.91;;;7.10;100.00